Time,TemperatureF,DewpointF,PressureIn,WindDirection,WindDirectionDegrees,WindSpeedMPH,WindSpeedGustMPH,Humidity,HourlyPrecipIn,Conditions,Clouds,dailyrainin,SoftwareType,DateUTC
2013-08-10 00:02:00,71.3,70.7,30.00,NNE,13,20.0,39.0,98,-0.21,,,0.01,Weather View 32 v70,2013-08-10 10:02:00,
2013-08-10 00:07:00,71.3,70.7,30.01,NNW,344,17.0,39.0,98,-0.21,,,0.01,Weather View 32 v70,2013-08-10 10:07:00,
2013-08-10 00:12:00,71.3,70.7,30.00,North,355,27.0,39.0,98,-0.20,,,0.02,Weather View 32 v70,2013-08-10 10:12:00,
2013-08-10 00:17:00,71.4,70.8,30.00,North,355,26.0,39.0,98,-0.20,,,0.02,Weather View 32 v70,2013-08-10 10:17:00,
2013-08-10 00:22:00,71.5,70.9,30.00,NNE,23,21.0,39.0,98,-0.20,,,0.02,Weather View 32 v70,2013-08-10 10:22:00,
2013-08-10 00:27:00,71.6,71.0,29.99,NNE,21,33.0,39.0,98,-0.20,,,0.02,Weather View 32 v70,2013-08-10 10:27:00,
2013-08-10 00:32:00,71.6,71.0,29.99,NNE,14,24.0,39.0,98,-0.20,,,0.02,Weather View 32 v70,2013-08-10 10:32:00,
2013-08-10 00:37:00,71.6,71.0,29.99,NNE,12,25.0,39.0,98,-0.20,,,0.02,Weather View 32 v70,2013-08-10 10:37:00,
2013-08-10 00:42:00,71.7,71.1,29.99,NNW,345,26.0,39.0,98,-0.19,,,0.03,Weather View 32 v70,2013-08-10 10:42:00,
2013-08-10 00:47:00,71.5,70.9,30.00,North,2,25.0,39.0,98,-0.19,,,0.03,Weather View 32 v70,2013-08-10 10:47:00,
2013-08-10 00:52:00,71.4,70.8,29.99,NNW,348,23.0,39.0,98,-0.18,,,0.04,Weather View 32 v70,2013-08-10 10:52:00,
2013-08-10 00:57:00,71.4,70.8,30.00,North,359,28.0,39.0,98,-0.19,,,0.04,Weather View 32 v70,2013-08-10 10:57:00,
2013-08-10 01:02:00,71.2,70.6,29.97,NNE,17,26.0,39.0,98,0.04,,,0.05,Weather View 32 v70,2013-08-10 11:02:00,
2013-08-10 01:07:00,71.3,70.7,29.99,NE,35,24.0,39.0,98,0.04,,,0.05,Weather View 32 v70,2013-08-10 11:07:00,
2013-08-10 01:12:00,71.5,70.9,29.98,NNW,347,28.0,39.0,98,0.03,,,0.05,Weather View 32 v70,2013-08-10 11:12:00,
2013-08-10 01:17:00,71.6,71.0,29.96,North,360,27.0,39.0,98,0.04,,,0.06,Weather View 32 v70,2013-08-10 11:17:00,
2013-08-10 01:22:00,71.6,71.0,29.96,NNW,347,36.0,42.0,98,0.04,,,0.06,Weather View 32 v70,2013-08-10 11:22:00,
2013-08-10 01:27:00,71.6,71.0,29.97,North,355,21.0,42.0,98,0.05,,,0.07,Weather View 32 v70,2013-08-10 11:27:00,
2013-08-10 01:32:00,71.6,71.0,29.98,North,4,20.0,42.0,98,0.05,,,0.07,Weather View 32 v70,2013-08-10 11:32:00,
2013-08-10 01:37:00,71.5,70.9,29.99,North,10,23.0,42.0,98,0.06,,,0.08,Weather View 32 v70,2013-08-10 11:37:00,
2013-08-10 01:42:00,71.5,70.9,29.99,NNE,13,17.0,42.0,98,0.06,,,0.10,Weather View 32 v70,2013-08-10 11:42:00,
2013-08-10 01:47:00,71.3,70.7,29.99,North,4,24.0,42.0,98,0.10,,,0.13,Weather View 32 v70,2013-08-10 11:47:00,
2013-08-10 01:52:00,71.2,70.6,29.99,North,349,15.0,42.0,98,0.10,,,0.14,Weather View 32 v70,2013-08-10 11:52:00,
2013-08-10 01:57:00,71.2,70.6,29.98,North,357,29.0,42.0,98,0.11,,,0.15,Weather View 32 v70,2013-08-10 11:57:00,
2013-08-10 02:02:00,71.2,70.6,30.00,North,349,28.0,42.0,98,0.10,,,0.15,Weather View 32 v70,2013-08-10 12:02:00,
2013-08-10 02:07:00,71.2,70.6,29.99,NNE,22,26.0,42.0,98,0.10,,,0.15,Weather View 32 v70,2013-08-10 12:07:00,
2013-08-10 02:12:00,71.1,70.5,29.98,North,350,16.0,42.0,98,0.10,,,0.15,Weather View 32 v70,2013-08-10 12:12:00,
2013-08-10 02:17:00,71.3,70.7,29.98,North,9,14.0,42.0,98,0.09,,,0.15,Weather View 32 v70,2013-08-10 12:17:00,
2013-08-10 02:22:00,71.5,70.9,29.97,North,11,25.0,40.0,98,0.09,,,0.15,Weather View 32 v70,2013-08-10 12:22:00,
2013-08-10 02:27:00,71.5,70.9,29.96,North,351,33.0,38.0,98,0.08,,,0.15,Weather View 32 v70,2013-08-10 12:27:00,
2013-08-10 02:32:00,71.7,71.1,29.97,North,6,21.0,33.0,98,0.08,,,0.15,Weather View 32 v70,2013-08-10 12:32:00,
2013-08-10 02:37:00,71.7,71.1,29.96,North,358,22.0,33.0,98,0.07,,,0.15,Weather View 32 v70,2013-08-10 12:37:00,
2013-08-10 02:42:00,71.5,70.9,29.97,NNE,12,19.0,33.0,98,0.06,,,0.15,Weather View 32 v70,2013-08-10 12:42:00,
2013-08-10 02:47:00,71.4,70.8,29.96,North,357,30.0,33.0,98,0.02,,,0.15,Weather View 32 v70,2013-08-10 12:47:00,
2013-08-10 02:52:00,71.2,70.6,29.97,NNE,22,23.0,33.0,98,0.01,,,0.15,Weather View 32 v70,2013-08-10 12:52:00,
2013-08-10 02:57:00,71.0,70.4,29.97,North,5,19.0,33.0,98,0.00,,,0.15,Weather View 32 v70,2013-08-10 12:57:00,
2013-08-10 03:02:00,70.8,70.2,29.98,North,8,24.0,34.0,98,0.01,,,0.16,Weather View 32 v70,2013-08-10 13:02:00,
2013-08-10 03:07:00,70.7,70.1,29.98,NNE,13,15.0,34.0,98,0.01,,,0.16,Weather View 32 v70,2013-08-10 13:07:00,
2013-08-10 03:12:00,70.6,70.0,29.97,North,10,14.0,34.0,98,0.01,,,0.16,Weather View 32 v70,2013-08-10 13:12:00,
2013-08-10 03:17:00,70.6,70.0,29.98,North,353,25.0,34.0,98,0.01,,,0.16,Weather View 32 v70,2013-08-10 13:17:00,
2013-08-10 03:22:00,70.6,70.0,29.98,NNW,335,9.0,34.0,98,0.01,,,0.16,Weather View 32 v70,2013-08-10 13:22:00,
2013-08-10 03:27:00,70.7,70.1,29.98,North,354,23.0,34.0,98,0.01,,,0.16,Weather View 32 v70,2013-08-10 13:27:00,
2013-08-10 03:32:00,70.8,70.2,29.98,NNW,330,12.0,34.0,98,0.01,,,0.16,Weather View 32 v70,2013-08-10 13:32:00,
2013-08-10 03:37:00,70.9,70.3,29.98,North,1,12.0,34.0,98,0.01,,,0.17,Weather View 32 v70,2013-08-10 13:37:00,
2013-08-10 03:42:00,71.0,70.4,29.98,NNW,341,15.0,34.0,98,0.02,,,0.17,Weather View 32 v70,2013-08-10 13:42:00,
2013-08-10 03:47:00,71.1,70.5,29.98,North,9,10.0,34.0,98,0.02,,,0.17,Weather View 32 v70,2013-08-10 13:47:00,
2013-08-10 03:52:00,71.1,70.5,29.98,North,353,12.0,34.0,98,0.02,,,0.17,Weather View 32 v70,2013-08-10 13:52:00,
2013-08-10 03:57:00,71.1,70.5,29.98,NNW,327,15.0,34.0,98,0.02,,,0.17,Weather View 32 v70,2013-08-10 13:57:00,
2013-08-10 04:02:00,71.2,70.6,29.98,NNW,334,8.0,32.0,98,0.01,,,0.17,Weather View 32 v70,2013-08-10 14:02:00,
2013-08-10 04:07:00,71.3,70.7,29.97,NE,41,10.0,31.0,98,0.02,,,0.18,Weather View 32 v70,2013-08-10 14:07:00,
2013-08-10 04:12:00,71.2,70.6,29.98,North,11,6.0,26.0,98,0.02,,,0.18,Weather View 32 v70,2013-08-10 14:12:00,
2013-08-10 04:17:00,71.3,70.7,29.98,North,359,8.0,26.0,98,0.02,,,0.18,Weather View 32 v70,2013-08-10 14:17:00,
2013-08-10 04:22:00,71.3,70.7,29.97,NNW,344,8.0,26.0,98,0.02,,,0.18,Weather View 32 v70,2013-08-10 14:22:00,
2013-08-10 04:27:00,71.3,70.7,29.97,North,357,12.0,26.0,98,0.03,,,0.19,Weather View 32 v70,2013-08-10 14:27:00,
2013-08-10 04:32:00,71.2,70.6,29.98,North,6,10.0,26.0,98,0.03,,,0.19,Weather View 32 v70,2013-08-10 14:32:00,
2013-08-10 04:37:00,71.0,70.4,29.97,North,359,13.0,26.0,98,0.03,,,0.19,Weather View 32 v70,2013-08-10 14:37:00,
2013-08-10 04:42:00,71.0,70.4,29.98,NNW,328,6.0,24.0,98,0.02,,,0.19,Weather View 32 v70,2013-08-10 14:42:00,
2013-08-10 04:47:00,71.0,70.4,29.98,North,353,7.0,24.0,98,0.02,,,0.19,Weather View 32 v70,2013-08-10 14:47:00,
2013-08-10 04:52:00,71.0,70.4,29.98,North,2,6.0,20.0,98,0.02,,,0.19,Weather View 32 v70,2013-08-10 14:52:00,
2013-08-10 04:57:00,70.8,70.2,29.98,NNE,29,4.0,18.0,98,0.02,,,0.19,Weather View 32 v70,2013-08-10 14:57:00,
2013-08-10 05:02:00,70.8,70.2,29.97,NE,34,5.0,15.0,98,0.02,,,0.19,Weather View 32 v70,2013-08-10 15:02:00,
2013-08-10 05:07:00,70.8,70.2,29.98,North,7,6.0,14.0,98,0.01,,,0.19,Weather View 32 v70,2013-08-10 15:07:00,
2013-08-10 05:12:00,70.8,70.2,29.98,NNE,14,4.0,14.0,98,0.01,,,0.19,Weather View 32 v70,2013-08-10 15:12:00,
2013-08-10 05:17:00,70.8,70.2,29.98,North,8,8.0,14.0,98,0.01,,,0.19,Weather View 32 v70,2013-08-10 15:17:00,
2013-08-10 05:22:00,70.8,70.2,29.98,North,5,6.0,14.0,98,0.01,,,0.19,Weather View 32 v70,2013-08-10 15:22:00,
2013-08-10 05:27:00,70.8,70.2,29.98,North,359,4.0,14.0,98,0.00,,,0.19,Weather View 32 v70,2013-08-10 15:27:00,
2013-08-10 05:32:00,70.8,70.2,29.98,North,359,6.0,14.0,98,0.00,,,0.19,Weather View 32 v70,2013-08-10 15:32:00,
2013-08-10 05:37:00,70.8,70.2,29.98,NNW,347,6.0,14.0,98,0.00,,,0.19,Weather View 32 v70,2013-08-10 15:37:00,
2013-08-10 05:42:00,70.9,70.3,29.98,NNW,332,9.0,14.0,98,0.00,,,0.19,Weather View 32 v70,2013-08-10 15:42:00,
2013-08-10 05:47:00,70.9,70.3,29.98,NW,326,7.0,14.0,98,0.01,,,0.20,Weather View 32 v70,2013-08-10 15:47:00,
2013-08-10 05:52:00,70.9,70.3,29.98,NNW,345,16.0,16.0,98,0.01,,,0.20,Weather View 32 v70,2013-08-10 15:52:00,
2013-08-10 05:57:00,70.9,70.3,29.98,North,349,8.0,17.0,98,0.01,,,0.20,Weather View 32 v70,2013-08-10 15:57:00,
2013-08-10 06:02:00,71.0,70.4,29.98,NNW,342,11.0,19.0,98,0.02,,,0.21,Weather View 32 v70,2013-08-10 16:02:00,
2013-08-10 06:07:00,71.0,70.4,29.99,North,11,4.0,19.0,98,0.02,,,0.21,Weather View 32 v70,2013-08-10 16:07:00,
2013-08-10 06:12:00,71.1,70.5,29.99,NNW,339,14.0,19.0,98,0.02,,,0.21,Weather View 32 v70,2013-08-10 16:12:00,
2013-08-10 06:17:00,71.2,70.6,29.98,NNW,348,10.0,20.0,98,0.02,,,0.21,Weather View 32 v70,2013-08-10 16:17:00,
2013-08-10 06:22:00,71.2,70.6,29.99,North,2,10.0,20.0,98,0.02,,,0.21,Weather View 32 v70,2013-08-10 16:22:00,
2013-08-10 06:27:00,71.2,70.6,29.99,NNW,334,14.0,20.0,98,0.02,,,0.21,Weather View 32 v70,2013-08-10 16:27:00,
2013-08-10 06:32:00,71.2,70.6,29.99,NNE,27,8.0,20.0,98,0.02,,,0.21,Weather View 32 v70,2013-08-10 16:32:00,
2013-08-10 06:37:00,71.2,70.6,30.00,North,353,11.0,20.0,98,0.02,,,0.21,Weather View 32 v70,2013-08-10 16:37:00,
2013-08-10 06:42:00,71.1,70.5,30.00,North,8,11.0,20.0,98,0.02,,,0.21,Weather View 32 v70,2013-08-10 16:42:00,
2013-08-10 06:47:00,71.1,70.5,29.99,NNW,343,13.0,20.0,98,0.01,,,0.21,Weather View 32 v70,2013-08-10 16:47:00,
2013-08-10 06:52:00,71.0,70.4,30.00,North,3,12.0,20.0,98,0.01,,,0.21,Weather View 32 v70,2013-08-10 16:52:00,
2013-08-10 06:57:00,71.1,70.5,30.00,NNE,24,6.0,20.0,98,0.01,,,0.21,Weather View 32 v70,2013-08-10 16:57:00,
2013-08-10 07:02:00,71.1,70.5,30.00,North,1,8.0,20.0,98,0.01,,,0.22,Weather View 32 v70,2013-08-10 17:02:00,
2013-08-10 07:07:00,71.2,70.6,30.00,North,350,5.0,20.0,98,0.01,,,0.22,Weather View 32 v70,2013-08-10 17:07:00,
2013-08-10 07:12:00,71.2,70.6,30.00,North,6,8.0,20.0,98,0.01,,,0.22,Weather View 32 v70,2013-08-10 17:12:00,
2013-08-10 07:17:00,71.3,70.7,30.00,North,356,14.0,21.0,98,0.02,,,0.23,Weather View 32 v70,2013-08-10 17:17:00,
2013-08-10 07:22:00,71.4,70.8,30.00,NNW,347,20.0,22.0,98,0.02,,,0.23,Weather View 32 v70,2013-08-10 17:22:00,
2013-08-10 07:27:00,71.4,70.8,30.00,NW,322,17.0,26.0,98,0.02,,,0.23,Weather View 32 v70,2013-08-10 17:27:00,
2013-08-10 07:32:00,71.5,70.9,29.99,North,359,20.0,26.0,98,0.03,,,0.24,Weather View 32 v70,2013-08-10 17:32:00,
2013-08-10 07:38:00,71.5,70.9,30.00,North,354,26.0,26.0,98,0.03,,,0.24,Weather View 32 v70,2013-08-10 17:38:00,
2013-08-10 07:43:00,71.4,70.8,30.00,North,6,19.0,27.0,98,0.03,,,0.24,Weather View 32 v70,2013-08-10 17:43:00,
2013-08-10 07:48:00,71.5,70.9,30.01,NNE,12,14.0,27.0,98,0.03,,,0.24,Weather View 32 v70,2013-08-10 17:48:00,
2013-08-10 07:53:00,71.6,71.0,30.01,North,359,12.0,27.0,98,0.03,,,0.24,Weather View 32 v70,2013-08-10 17:53:00,
2013-08-10 07:58:00,71.6,71.0,30.02,NNE,15,9.0,27.0,98,0.03,,,0.24,Weather View 32 v70,2013-08-10 17:58:00,
2013-08-10 08:04:00,71.7,71.1,30.02,North,356,11.0,27.0,98,0.02,,,0.24,Weather View 32 v70,2013-08-10 18:04:00,
2013-08-10 08:10:00,71.7,71.1,30.02,North,7,10.0,27.0,98,0.02,,,0.24,Weather View 32 v70,2013-08-10 18:10:00,
2013-08-10 08:15:00,71.5,70.9,30.02,North,355,11.0,27.0,98,0.01,,,0.24,Weather View 32 v70,2013-08-10 18:15:00,
2013-08-10 08:20:00,71.5,70.9,30.02,NNW,336,7.0,27.0,98,0.02,,,0.25,Weather View 32 v70,2013-08-10 18:20:00,
2013-08-10 08:25:00,71.4,70.8,30.02,North,351,12.0,27.0,98,0.03,,,0.26,Weather View 32 v70,2013-08-10 18:25:00,
2013-08-10 08:30:00,71.4,70.8,30.02,NNW,334,12.0,27.0,98,0.04,,,0.27,Weather View 32 v70,2013-08-10 18:30:00,
2013-08-10 08:35:00,71.5,70.9,30.02,North,4,11.0,27.0,98,0.03,,,0.27,Weather View 32 v70,2013-08-10 18:35:00,
2013-08-10 08:40:00,71.5,70.9,30.02,North,1,12.0,23.0,98,0.03,,,0.27,Weather View 32 v70,2013-08-10 18:40:00,
2013-08-10 08:45:00,71.6,71.0,30.02,North,3,15.0,19.0,98,0.03,,,0.27,Weather View 32 v70,2013-08-10 18:45:00,
2013-08-10 08:51:00,71.6,71.0,30.02,North,1,8.0,16.0,98,0.03,,,0.27,Weather View 32 v70,2013-08-10 18:51:00,
2013-08-10 09:02:00,71.8,71.2,30.02,NW,324,9.0,17.0,98,0.03,,,0.27,Weather View 32 v70,2013-08-10 19:02:00,
2013-08-10 09:09:00,71.9,71.3,30.02,NNW,347,8.0,17.0,98,0.03,,,0.27,Weather View 32 v70,2013-08-10 19:09:00,
2013-08-10 09:16:00,71.8,71.2,30.02,NNW,340,14.0,18.0,98,0.03,,,0.27,Weather View 32 v70,2013-08-10 19:16:00,
2013-08-10 09:21:00,71.6,71.0,30.02,North,353,14.0,19.0,98,0.01,,,0.27,Weather View 32 v70,2013-08-10 19:21:00,
2013-08-10 09:26:00,71.5,70.9,30.03,North,355,16.0,19.0,98,0.01,,,0.27,Weather View 32 v70,2013-08-10 19:26:00,
2013-08-10 09:31:00,71.6,71.0,30.03,NNE,12,10.0,19.0,98,0.00,,,0.27,Weather View 32 v70,2013-08-10 19:31:00,
2013-08-10 09:38:00,71.6,71.0,30.03,North,6,7.0,19.0,98,0.00,,,0.27,Weather View 32 v70,2013-08-10 19:38:00,
2013-08-10 09:46:00,71.6,71.0,30.03,NNE,17,11.0,19.0,98,0.00,,,0.27,Weather View 32 v70,2013-08-10 19:46:00,
2013-08-10 09:51:00,71.7,71.1,30.02,North,356,11.0,19.0,98,0.00,,,0.27,Weather View 32 v70,2013-08-10 19:51:00,
2013-08-10 09:56:00,71.6,71.0,30.03,North,7,17.0,23.0,98,0.00,,,0.27,Weather View 32 v70,2013-08-10 19:56:00,
2013-08-10 10:01:00,71.6,71.0,30.02,NW,318,21.0,27.0,98,0.00,,,0.27,Weather View 32 v70,2013-08-10 20:01:00,
2013-08-10 10:06:00,71.6,71.0,30.03,NNE,22,10.0,27.0,98,0.00,,,0.27,Weather View 32 v70,2013-08-10 20:06:00,
2013-08-10 10:12:00,71.7,71.1,30.02,NE,37,13.0,27.0,98,0.00,,,0.27,Weather View 32 v70,2013-08-10 20:12:00,
2013-08-10 10:17:00,71.7,71.1,30.02,NNW,330,9.0,27.0,98,0.00,,,0.27,Weather View 32 v70,2013-08-10 20:17:00,
2013-08-10 10:22:00,72.0,71.4,30.01,North,4,16.0,29.0,98,0.00,,,0.27,Weather View 32 v70,2013-08-10 20:22:00,
2013-08-10 10:28:00,72.4,71.8,30.02,North,1,18.0,29.0,98,0.00,,,0.27,Weather View 32 v70,2013-08-10 20:28:00,
2013-08-10 10:34:00,72.5,71.9,30.03,North,1,15.0,29.0,98,0.00,,,0.27,Weather View 32 v70,2013-08-10 20:34:00,
2013-08-10 10:39:00,72.1,71.5,30.02,North,3,13.0,29.0,98,0.00,,,0.27,Weather View 32 v70,2013-08-10 20:39:00,
2013-08-10 10:47:00,72.0,71.4,30.02,NNW,334,19.0,29.0,98,-0.27,,,0.27,Weather View 32 v70,2013-08-10 20:47:00,
2013-08-10 10:52:00,72.1,71.5,30.02,NNW,339,25.0,29.0,98,0.00,,,0.27,Weather View 32 v70,2013-08-10 20:52:00,
2013-08-10 10:58:00,72.1,71.5,30.02,North,357,15.0,29.0,98,0.00,,,0.27,Weather View 32 v70,2013-08-10 20:58:00,
2013-08-10 11:05:00,72.1,71.5,30.01,North,351,22.0,29.0,98,0.00,,,0.27,Weather View 32 v70,2013-08-10 21:05:00,
2013-08-10 11:10:00,72.2,71.3,30.02,North,360,16.0,32.0,97,0.00,,,0.27,Weather View 32 v70,2013-08-10 21:10:00,
2013-08-10 11:15:00,72.2,71.3,30.01,North,355,25.0,32.0,97,0.00,,,0.27,Weather View 32 v70,2013-08-10 21:15:00,
2013-08-10 11:21:00,72.2,71.3,30.02,NNE,18,12.0,32.0,97,0.00,,,0.27,Weather View 32 v70,2013-08-10 21:21:00,
2013-08-10 11:26:00,72.4,71.5,30.00,NNW,346,26.0,32.0,97,0.00,,,0.27,Weather View 32 v70,2013-08-10 21:26:00,
2013-08-10 11:32:00,72.5,71.6,30.01,NNW,347,20.0,34.0,97,0.00,,,0.27,Weather View 32 v70,2013-08-10 21:32:00,
2013-08-10 11:38:00,72.7,71.5,30.00,North,360,20.0,34.0,96,0.00,,,0.27,Weather View 32 v70,2013-08-10 21:38:00,
2013-08-10 11:44:00,72.8,71.6,30.01,NNW,334,17.0,34.0,96,0.00,,,0.27,Weather View 32 v70,2013-08-10 21:44:00,
2013-08-10 11:49:00,73.0,71.5,29.98,NNW,334,18.0,34.0,95,0.00,,,0.27,Weather View 32 v70,2013-08-10 21:49:00,
2013-08-10 11:55:00,73.2,71.4,30.01,NNE,22,23.0,34.0,94,0.00,,,0.27,Weather View 32 v70,2013-08-10 21:55:00,
2013-08-10 12:00:00,73.2,71.4,30.00,NNW,344,22.0,34.0,94,0.00,,,0.27,Weather View 32 v70,2013-08-10 22:00:00,
2013-08-10 12:06:00,73.3,71.1,30.01,NNW,343,18.0,34.0,93,0.00,,,0.27,Weather View 32 v70,2013-08-10 22:06:00,
2013-08-10 12:11:00,73.5,71.3,30.01,North,8,15.0,34.0,93,0.00,,,0.27,Weather View 32 v70,2013-08-10 22:11:00,
2013-08-10 12:17:00,73.7,71.5,30.00,NNE,17,18.0,34.0,93,0.00,,,0.27,Weather View 32 v70,2013-08-10 22:17:00,
2013-08-10 12:24:00,73.8,71.6,30.00,NNW,332,14.0,34.0,93,0.00,,,0.27,Weather View 32 v70,2013-08-10 22:24:00,
2013-08-10 12:30:00,74.1,71.6,30.00,NNW,338,13.0,34.0,92,-0.27,,,0.27,Weather View 32 v70,2013-08-10 22:30:00,
2013-08-10 12:35:00,74.5,71.7,30.00,NNW,336,17.0,31.0,91,0.00,,,0.27,Weather View 32 v70,2013-08-10 22:35:00,
2013-08-10 12:40:00,74.5,71.7,29.99,NNW,339,13.0,30.0,91,0.00,,,0.27,Weather View 32 v70,2013-08-10 22:40:00,
2013-08-10 12:46:00,74.2,71.4,30.00,North,351,16.0,30.0,91,0.00,,,0.27,Weather View 32 v70,2013-08-10 22:46:00,
2013-08-10 12:52:00,74.0,71.2,30.01,NNE,29,16.0,29.0,91,0.00,,,0.27,Weather View 32 v70,2013-08-10 22:52:00,
2013-08-10 12:57:00,74.2,71.1,30.00,NW,325,21.0,29.0,90,0.00,,,0.27,Weather View 32 v70,2013-08-10 22:57:00,
2013-08-10 13:02:00,74.3,71.2,29.99,North,3,15.0,29.0,90,0.00,,,0.27,Weather View 32 v70,2013-08-10 23:02:00,
2013-08-10 13:07:00,74.4,71.3,29.99,North,351,15.0,29.0,90,0.00,,,0.27,Weather View 32 v70,2013-08-10 23:07:00,
2013-08-10 13:13:00,74.4,70.9,29.99,NNW,337,17.0,29.0,89,0.00,,,0.27,Weather View 32 v70,2013-08-10 23:13:00,
2013-08-10 13:18:00,74.8,71.3,29.98,North,3,21.0,29.0,89,0.00,,,0.27,Weather View 32 v70,2013-08-10 23:18:00,
2013-08-10 13:24:00,75.1,71.3,29.99,NW,315,8.0,30.0,88,0.00,,,0.27,Weather View 32 v70,2013-08-10 23:24:00,
2013-08-10 13:29:00,75.1,70.9,29.98,NW,316,22.0,30.0,87,0.00,,,0.27,Weather View 32 v70,2013-08-10 23:29:00,
2013-08-10 13:35:00,74.9,70.8,29.99,NW,310,12.0,30.0,87,0.00,,,0.27,Weather View 32 v70,2013-08-10 23:35:00,
2013-08-10 13:40:00,74.9,70.8,29.99,NW,320,14.0,30.0,87,0.00,,,0.27,Weather View 32 v70,2013-08-10 23:40:00,
2013-08-10 13:47:00,74.8,70.7,29.99,NW,307,11.0,30.0,87,0.00,,,0.27,Weather View 32 v70,2013-08-10 23:47:00,
2013-08-10 13:54:00,74.8,70.7,29.99,North,353,19.0,30.0,87,0.00,,,0.27,Weather View 32 v70,2013-08-10 23:54:00,
2013-08-10 14:01:00,74.7,70.6,29.99,NW,318,11.0,30.0,87,0.00,,,0.27,Weather View 32 v70,2013-08-11 00:01:00,
2013-08-10 14:06:00,74.5,70.4,29.99,NW,305,9.0,30.0,87,-0.27,,,0.27,Weather View 32 v70,2013-08-11 00:06:00,
2013-08-10 14:12:00,74.5,70.4,29.99,NW,306,17.0,30.0,87,0.00,,,0.27,Weather View 32 v70,2013-08-11 00:12:00,
2013-08-10 14:17:00,74.7,70.6,29.98,NNW,346,19.0,30.0,87,0.00,,,0.27,Weather View 32 v70,2013-08-11 00:17:00,
2013-08-10 14:22:00,74.8,70.7,29.99,NW,320,17.0,30.0,87,0.00,,,0.27,Weather View 32 v70,2013-08-11 00:22:00,
2013-08-10 14:27:00,75.1,70.6,29.98,North,358,19.0,30.0,86,0.00,,,0.27,Weather View 32 v70,2013-08-11 00:27:00,
2013-08-10 14:32:00,75.2,70.7,29.96,NNW,337,25.0,33.0,86,0.00,,,0.27,Weather View 32 v70,2013-08-11 00:32:00,
2013-08-10 14:39:00,75.2,70.7,29.98,WNW,303,13.0,33.0,86,0.00,,,0.27,Weather View 32 v70,2013-08-11 00:39:00,
2013-08-10 14:44:00,75.3,70.8,29.97,WNW,303,16.0,33.0,86,0.00,,,0.27,Weather View 32 v70,2013-08-11 00:44:00,
2013-08-10 14:50:00,75.4,70.6,29.98,North,355,9.0,33.0,85,0.00,,,0.27,Weather View 32 v70,2013-08-11 00:50:00,
2013-08-10 14:56:00,75.4,70.6,29.98,NNW,341,23.0,33.0,85,0.00,,,0.27,Weather View 32 v70,2013-08-11 00:56:00,
2013-08-10 15:02:00,75.3,70.8,29.98,NW,324,15.0,33.0,86,0.00,,,0.27,Weather View 32 v70,2013-08-11 01:02:00,
2013-08-10 15:07:00,75.4,70.6,29.98,NNW,338,17.0,33.0,85,0.00,,,0.27,Weather View 32 v70,2013-08-11 01:07:00,
2013-08-10 15:13:00,75.3,70.5,29.98,North,359,22.0,33.0,85,0.00,,,0.27,Weather View 32 v70,2013-08-11 01:13:00,
2013-08-10 15:19:00,75.3,70.5,29.98,NW,326,14.0,33.0,85,0.00,,,0.27,Weather View 32 v70,2013-08-11 01:19:00,
2013-08-10 15:27:00,75.2,70.4,29.98,North,4,14.0,33.0,85,0.00,,,0.27,Weather View 32 v70,2013-08-11 01:27:00,
2013-08-10 15:32:00,75.3,70.5,29.98,NW,322,26.0,33.0,85,0.00,,,0.27,Weather View 32 v70,2013-08-11 01:32:00,
2013-08-10 15:38:00,75.2,70.7,29.97,NW,324,18.0,31.0,86,0.00,,,0.27,Weather View 32 v70,2013-08-11 01:38:00,
2013-08-10 15:43:00,75.0,70.8,29.97,NNE,20,23.0,31.0,87,0.00,,,0.27,Weather View 32 v70,2013-08-11 01:43:00,
2013-08-10 15:48:00,74.8,70.7,29.97,North,349,21.0,29.0,87,0.00,,,0.27,Weather View 32 v70,2013-08-11 01:48:00,
2013-08-10 15:54:00,74.6,70.8,29.96,NNE,22,18.0,34.0,88,0.00,,,0.27,Weather View 32 v70,2013-08-11 01:54:00,
2013-08-10 16:00:00,74.8,70.7,29.97,North,349,27.0,34.0,87,0.00,,,0.27,Weather View 32 v70,2013-08-11 02:00:00,
2013-08-10 16:11:00,74.9,70.4,29.97,NW,318,8.0,34.0,86,0.00,,,0.27,Weather View 32 v70,2013-08-11 02:11:00,
2013-08-10 16:16:00,74.7,70.9,29.96,NNW,346,15.0,34.0,88,0.00,,,0.27,Weather View 32 v70,2013-08-11 02:16:00,
2013-08-10 16:21:00,74.6,70.5,29.96,North,355,13.0,34.0,87,0.00,,,0.27,Weather View 32 v70,2013-08-11 02:21:00,
2013-08-10 16:35:00,75.0,70.5,29.97,NW,316,18.0,34.0,86,0.00,,,0.27,Weather View 32 v70,2013-08-11 02:35:00,
2013-08-10 16:40:00,74.9,70.8,29.97,North,359,13.0,35.0,87,0.00,,,0.27,Weather View 32 v70,2013-08-11 02:40:00,
2013-08-10 16:46:00,74.9,70.8,29.97,NNW,348,16.0,35.0,87,0.00,,,0.27,Weather View 32 v70,2013-08-11 02:46:00,
2013-08-10 16:52:00,75.0,70.8,29.97,NNW,341,16.0,35.0,87,0.00,,,0.27,Weather View 32 v70,2013-08-11 02:52:00,
2013-08-10 16:58:00,74.9,70.8,29.98,NNE,14,12.0,35.0,87,0.00,,,0.27,Weather View 32 v70,2013-08-11 02:58:00,
2013-08-10 17:06:00,74.7,70.9,29.97,NNE,33,14.0,35.0,88,0.00,,,0.27,Weather View 32 v70,2013-08-11 03:06:00,
2013-08-10 17:11:00,74.5,71.0,29.97,NNW,343,26.0,35.0,89,0.00,,,0.27,Weather View 32 v70,2013-08-11 03:11:00,
2013-08-10 17:16:00,74.2,71.1,29.98,NW,322,22.0,35.0,90,0.00,,,0.27,Weather View 32 v70,2013-08-11 03:16:00,
2013-08-10 17:21:00,74.0,70.9,29.98,NNE,20,15.0,35.0,90,0.00,,,0.27,Weather View 32 v70,2013-08-11 03:21:00,
2013-08-10 17:27:00,74.1,71.0,29.98,NW,326,18.0,35.0,90,0.00,,,0.27,Weather View 32 v70,2013-08-11 03:27:00,
2013-08-10 17:32:00,74.0,70.9,29.97,NNW,345,27.0,35.0,90,0.00,,,0.27,Weather View 32 v70,2013-08-11 03:32:00,
2013-08-10 17:37:00,73.9,70.8,29.98,NNW,338,22.0,33.0,90,0.00,,,0.27,Weather View 32 v70,2013-08-11 03:37:00,
2013-08-10 17:42:00,73.9,70.8,29.98,NNE,18,14.0,33.0,90,0.00,,,0.27,Weather View 32 v70,2013-08-11 03:42:00,
2013-08-10 17:48:00,73.9,70.8,29.98,North,351,27.0,33.0,90,0.00,,,0.27,Weather View 32 v70,2013-08-11 03:48:00,
2013-08-10 17:53:00,73.5,71.0,29.98,North,359,26.0,34.0,92,0.00,,,0.27,Weather View 32 v70,2013-08-11 03:53:00,
2013-08-10 18:00:00,73.3,70.8,29.98,NNW,346,19.0,34.0,92,0.00,,,0.27,Weather View 32 v70,2013-08-11 04:00:00,
2013-08-10 18:01:00,73.3,70.8,29.98,NW,322,12.0,34.0,92,0.00,,,0.27,Weather View 32 v70,2013-08-11 04:01:00,
2013-08-10 18:03:00,73.3,70.8,29.98,WNW,299,17.0,34.0,92,0.00,,,0.27,Weather View 32 v70,2013-08-11 04:03:00,
2013-08-10 18:08:00,73.4,70.9,29.98,North,355,19.0,34.0,92,0.00,,,0.27,Weather View 32 v70,2013-08-11 04:08:00,
2013-08-10 18:13:00,73.4,70.9,29.97,NNW,339,21.0,34.0,92,0.00,,,0.27,Weather View 32 v70,2013-08-11 04:13:00,
2013-08-10 18:18:00,73.4,70.9,29.98,North,4,17.0,34.0,92,0.00,,,0.27,Weather View 32 v70,2013-08-11 04:18:00,
2013-08-10 18:23:00,73.4,70.9,29.98,North,1,24.0,35.0,92,0.00,,,0.27,Weather View 32 v70,2013-08-11 04:23:00,
2013-08-10 18:28:00,73.4,70.9,29.98,North,355,26.0,35.0,92,0.00,,,0.27,Weather View 32 v70,2013-08-11 04:28:00,
2013-08-10 18:33:00,73.4,70.9,29.98,North,358,21.0,35.0,92,0.00,,,0.27,Weather View 32 v70,2013-08-11 04:33:00,
2013-08-10 18:38:00,73.3,70.5,29.98,NNE,16,26.0,36.0,91,0.00,,,0.27,Weather View 32 v70,2013-08-11 04:38:00,
2013-08-10 18:43:00,73.3,70.5,30.00,NW,320,20.0,36.0,91,0.00,,,0.27,Weather View 32 v70,2013-08-11 04:43:00,
2013-08-10 18:48:00,73.4,70.6,29.99,NNW,330,20.0,36.0,91,0.00,,,0.27,Weather View 32 v70,2013-08-11 04:48:00,
2013-08-10 18:53:00,73.4,70.3,29.98,NNW,343,22.0,36.0,90,0.00,,,0.27,Weather View 32 v70,2013-08-11 04:53:00,
2013-08-10 18:58:00,73.4,70.3,29.98,NNW,344,27.0,36.0,90,0.00,,,0.27,Weather View 32 v70,2013-08-11 04:58:00,
2013-08-10 19:03:00,73.4,70.3,30.00,North,351,27.0,40.0,90,0.00,,,0.27,Weather View 32 v70,2013-08-11 05:03:00,
2013-08-10 19:08:00,73.4,70.3,30.00,NNW,341,25.0,40.0,90,0.00,,,0.27,Weather View 32 v70,2013-08-11 05:08:00,
2013-08-10 19:14:00,73.5,70.0,30.00,NW,320,18.0,40.0,89,-0.23,,,0.27,Weather View 32 v70,2013-08-11 05:14:00,
2013-08-10 19:19:00,73.8,70.0,30.00,NNW,339,28.0,40.0,88,0.00,,,0.27,Weather View 32 v70,2013-08-11 05:19:00,
2013-08-10 19:25:00,73.8,70.0,30.01,North,5,15.0,40.0,88,0.00,,,0.27,Weather View 32 v70,2013-08-11 05:25:00,
2013-08-10 19:30:00,73.8,69.7,30.00,NNE,14,24.0,40.0,87,0.00,,,0.27,Weather View 32 v70,2013-08-11 05:30:00,
2013-08-10 19:35:00,73.7,69.6,30.00,NNW,346,24.0,40.0,87,0.00,,,0.27,Weather View 32 v70,2013-08-11 05:35:00,
2013-08-10 19:40:00,73.8,69.7,30.00,NW,317,18.0,40.0,87,0.00,,,0.27,Weather View 32 v70,2013-08-11 05:40:00,
2013-08-10 19:45:00,73.7,69.6,30.01,NNW,332,19.0,40.0,87,0.00,,,0.27,Weather View 32 v70,2013-08-11 05:45:00,
2013-08-10 19:50:00,73.7,69.9,30.00,NNW,347,23.0,40.0,88,0.00,,,0.27,Weather View 32 v70,2013-08-11 05:50:00,
2013-08-10 19:55:00,73.8,69.7,30.02,NW,312,15.0,40.0,87,0.00,,,0.27,Weather View 32 v70,2013-08-11 05:55:00,
2013-08-10 20:00:00,73.9,69.4,30.02,NNW,330,18.0,40.0,86,0.00,,,0.27,Weather View 32 v70,2013-08-11 06:00:00,
2013-08-10 20:05:00,74.4,69.2,30.00,NNW,337,32.0,39.0,84,0.00,,,0.27,Weather View 32 v70,2013-08-11 06:05:00,
2013-08-10 20:11:00,74.2,69.4,30.00,NNW,343,20.0,39.0,85,0.00,,,0.27,Weather View 32 v70,2013-08-11 06:11:00,
2013-08-10 20:16:00,74.1,69.3,30.00,NNW,343,27.0,41.0,85,0.00,,,0.27,Weather View 32 v70,2013-08-11 06:16:00,
2013-08-10 20:21:00,74.2,69.0,30.01,North,11,25.0,41.0,84,0.00,,,0.27,Weather View 32 v70,2013-08-11 06:21:00,
2013-08-10 20:27:00,74.4,68.9,30.02,North,4,18.0,41.0,83,0.00,,,0.27,Weather View 32 v70,2013-08-11 06:27:00,
2013-08-10 20:32:00,74.7,68.8,30.00,NNW,327,23.0,41.0,82,0.00,,,0.27,Weather View 32 v70,2013-08-11 06:32:00,
2013-08-10 20:37:00,74.7,68.8,30.00,NNW,334,27.0,41.0,82,0.00,,,0.27,Weather View 32 v70,2013-08-11 06:37:00,
2013-08-10 20:42:00,74.4,68.9,30.01,NNW,343,28.0,41.0,83,0.00,,,0.27,Weather View 32 v70,2013-08-11 06:42:00,
2013-08-10 20:48:00,74.2,69.0,30.00,North,358,12.0,41.0,84,0.00,,,0.27,Weather View 32 v70,2013-08-11 06:48:00,
2013-08-10 20:53:00,74.2,69.0,30.02,North,353,33.0,41.0,84,0.00,,,0.27,Weather View 32 v70,2013-08-11 06:53:00,
2013-08-10 20:58:00,74.4,69.2,30.03,NW,325,22.0,41.0,84,0.00,,,0.27,Weather View 32 v70,2013-08-11 06:58:00,
2013-08-10 21:04:00,74.6,69.1,30.01,North,353,23.0,41.0,83,0.00,,,0.27,Weather View 32 v70,2013-08-11 07:04:00,
2013-08-10 21:09:00,75.0,68.7,30.02,NNW,339,27.0,41.0,81,0.00,,,0.27,Weather View 32 v70,2013-08-11 07:09:00,
2013-08-10 21:14:00,75.1,68.8,30.01,NW,308,20.0,39.0,81,0.00,,,0.27,Weather View 32 v70,2013-08-11 07:14:00,
2013-08-10 21:19:00,74.8,68.9,30.03,NW,316,14.0,39.0,82,0.00,,,0.27,Weather View 32 v70,2013-08-11 07:19:00,
2013-08-10 21:24:00,74.7,69.2,30.03,North,4,29.0,38.0,83,0.00,,,0.27,Weather View 32 v70,2013-08-11 07:24:00,
2013-08-10 21:30:00,74.7,69.2,30.02,North,357,30.0,38.0,83,0.00,,,0.27,Weather View 32 v70,2013-08-11 07:30:00,
2013-08-10 21:35:00,74.7,69.2,30.02,NNW,347,22.0,39.0,83,0.00,,,0.27,Weather View 32 v70,2013-08-11 07:35:00,
2013-08-10 21:40:00,74.8,69.3,30.03,NNW,348,25.0,39.0,83,0.00,,,0.27,Weather View 32 v70,2013-08-11 07:40:00,
2013-08-10 21:45:00,75.1,69.2,30.01,North,10,23.0,39.0,82,0.00,,,0.27,Weather View 32 v70,2013-08-11 07:45:00,
2013-08-10 21:50:00,75.0,69.1,30.03,North,358,13.0,39.0,82,0.00,,,0.27,Weather View 32 v70,2013-08-11 07:50:00,
2013-08-10 21:55:00,74.6,69.4,30.02,NNW,346,26.0,39.0,84,0.00,,,0.27,Weather View 32 v70,2013-08-11 07:55:00,
2013-08-10 22:01:00,74.4,69.6,30.02,NNE,26,31.0,40.0,85,0.00,,,0.27,Weather View 32 v70,2013-08-11 08:01:00,
2013-08-10 22:06:00,74.5,69.3,30.03,NNE,23,24.0,40.0,84,0.00,,,0.27,Weather View 32 v70,2013-08-11 08:06:00,
2013-08-10 22:11:00,74.4,69.2,30.02,NNE,12,20.0,40.0,84,0.00,,,0.27,Weather View 32 v70,2013-08-11 08:11:00,
2013-08-10 22:16:00,74.3,69.1,30.02,NNW,337,17.0,40.0,84,0.00,,,0.27,Weather View 32 v70,2013-08-11 08:16:00,
2013-08-10 22:21:00,74.0,69.9,30.02,NNW,345,25.0,40.0,87,0.00,,,0.27,Weather View 32 v70,2013-08-11 08:21:00,
2013-08-10 22:26:00,73.7,70.2,30.00,NNW,334,26.0,42.0,89,0.00,,,0.27,Weather View 32 v70,2013-08-11 08:26:00,
2013-08-10 22:31:00,73.7,69.9,30.02,North,355,23.0,42.0,88,0.00,,,0.27,Weather View 32 v70,2013-08-11 08:31:00,
2013-08-10 22:36:00,73.4,69.9,30.03,North,6,9.0,42.0,89,0.00,,,0.27,Weather View 32 v70,2013-08-11 08:36:00,
2013-08-10 22:41:00,73.5,70.0,30.04,NNE,15,25.0,42.0,89,0.00,,,0.27,Weather View 32 v70,2013-08-11 08:41:00,
2013-08-10 22:46:00,73.2,70.1,30.04,North,355,19.0,42.0,90,0.00,,,0.27,Weather View 32 v70,2013-08-11 08:46:00,
2013-08-10 22:51:00,73.3,70.2,30.04,NNW,333,20.0,42.0,90,0.00,,,0.27,Weather View 32 v70,2013-08-11 08:51:00,
2013-08-10 22:56:00,73.4,69.9,30.03,North,359,13.0,42.0,89,0.00,,,0.27,Weather View 32 v70,2013-08-11 08:56:00,
2013-08-10 23:01:00,73.7,69.9,30.03,North,359,24.0,42.0,88,0.00,,,0.27,Weather View 32 v70,2013-08-11 09:01:00,
2013-08-10 23:06:00,73.7,69.9,30.02,NNW,337,33.0,42.0,88,0.00,,,0.27,Weather View 32 v70,2013-08-11 09:06:00,
2013-08-10 23:12:00,73.7,69.9,30.01,NNW,340,26.0,44.0,88,0.00,,,0.27,Weather View 32 v70,2013-08-11 09:12:00,
2013-08-10 23:17:00,73.7,69.9,30.02,NNW,340,36.0,44.0,88,0.00,,,0.27,Weather View 32 v70,2013-08-11 09:17:00,
2013-08-10 23:22:00,73.3,69.8,30.01,NNW,343,34.0,44.0,89,0.00,,,0.27,Weather View 32 v70,2013-08-11 09:22:00,
2013-08-10 23:27:00,73.5,70.0,30.03,NNW,348,27.0,44.0,89,0.00,,,0.27,Weather View 32 v70,2013-08-11 09:27:00,
2013-08-10 23:32:00,73.2,70.1,30.02,NNW,339,27.0,44.0,90,0.00,,,0.27,Weather View 32 v70,2013-08-11 09:32:00,
2013-08-10 23:37:00,73.0,70.2,30.02,North,351,24.0,44.0,91,0.00,,,0.27,Weather View 32 v70,2013-08-11 09:37:00,
2013-08-10 23:42:00,72.7,69.9,30.02,NNW,328,25.0,44.0,91,0.00,,,0.27,Weather View 32 v70,2013-08-11 09:42:00,
2013-08-10 23:47:00,72.9,69.8,30.02,NNW,340,32.0,44.0,90,0.00,,,0.27,Weather View 32 v70,2013-08-11 09:47:00,
2013-08-10 23:52:00,73.0,69.6,30.01,NNW,348,26.0,44.0,89,0.00,,,0.27,Weather View 32 v70,2013-08-11 09:52:00,
2013-08-10 23:57:00,73.0,69.6,30.02,North,4,26.0,44.0,89,0.00,,,0.27,Weather View 32 v70,2013-08-11 09:57:00,